Time;durP1;ratioP1;P1;durP2;ratioP2;P2;SDS_P1;SDS_P2;PMS_P1;PMS_P2;Temp;Humidity;BMP_temperature;BMP_pressure;BME280_temperature;BME280_humidity;BME280_pressure;Samples;Min_cycle;Max_cycle;Signal;HPM_P1;HPM_P2
2024/03/08 00:00:33;;;;;;;27.08;16.75;;;2.00;99.90;;;;;;6237177;22;20441;-79
2024/03/08 00:03:00;;;;;;;26.90;17.52;;;2.10;99.90;;;;;;6186108;22;20008;-79
2024/03/08 00:05:26;;;;;;;28.77;18.50;;;1.90;99.90;;;;;;6236345;22;20031;-79
2024/03/08 00:07:53;;;;;;;29.35;18.92;;;1.90;99.90;;;;;;6210604;22;20062;-79
2024/03/08 00:10:20;;;;;;;30.83;19.52;;;1.80;99.90;;;;;;6213108;22;20012;-79
2024/03/08 00:12:46;;;;;;;34.35;18.52;;;1.80;99.90;;;;;;6237252;22;20098;-80
2024/03/08 00:15:14;;;;;;;30.70;19.35;;;1.60;99.90;;;;;;6210717;22;20042;-79
2024/03/08 00:17:40;;;;;;;29.60;19.67;;;1.70;99.90;;;;;;6186340;22;20016;-79
2024/03/08 00:20:08;;;;;;;31.65;20.05;;;1.60;99.90;;;;;;6212107;22;20111;-79
2024/03/08 00:22:37;;;;;;;28.77;18.42;;;1.60;99.90;;;;;;6212386;22;20091;-79
2024/03/08 00:25:03;;;;;;;32.83;19.83;;;1.50;99.90;;;;;;6185529;22;20107;-79
2024/03/08 00:27:32;;;;;;;32.78;20.42;;;1.50;99.90;;;;;;6211310;22;20032;-79
2024/03/08 00:29:58;;;;;;;33.08;20.08;;;1.20;99.90;;;;;;6237154;22;20007;-79
2024/03/08 00:32:24;;;;;;;35.83;21.35;;;1.20;99.90;;;;;;6186779;22;20027;-79
2024/03/08 00:34:51;;;;;;;30.13;20.77;;;1.30;99.90;;;;;;6238457;22;20535;-78
2024/03/08 00:37:17;;;;;;;32.85;21.05;;;1.40;99.90;;;;;;6213147;22;20061;-80
2024/03/08 00:39:43;;;;;;;32.42;20.38;;;1.30;99.90;;;;;;6185914;22;20015;-78
2024/03/08 00:42:08;;;;;;;32.47;20.75;;;1.30;99.90;;;;;;6263335;22;20094;-79
2024/03/08 00:44:34;;;;;;;33.10;18.90;;;1.30;99.90;;;;;;6263980;22;20510;-79
2024/03/08 00:47:02;;;;;;;32.58;19.95;;;1.40;99.90;;;;;;6234902;22;20404;-79
2024/03/08 00:49:27;;;;;;;35.03;21.17;;;1.40;99.90;;;;;;6211823;22;20015;-79
2024/03/08 00:51:53;;;;;;;38.05;21.10;;;1.20;99.90;;;;;;6212478;22;20018;-79
2024/03/08 00:54:18;;;;;;;33.40;21.75;;;1.10;99.90;;;;;;6238656;22;20070;-79
2024/03/08 00:56:45;;;;;;;34.00;20.77;;;1.00;99.90;;;;;;6236518;22;20346;-79
2024/03/08 00:59:11;;;;;;;32.67;19.75;;;1.10;99.90;;;;;;6186748;22;20558;-79
2024/03/08 01:01:43;;;;;;;33.10;21.00;;;1.00;99.90;;;;;;6236599;22;20020;-78
2024/03/08 01:04:09;;;;;;;37.22;21.30;;;0.90;99.90;;;;;;6212222;22;20349;-79
2024/03/08 01:06:35;;;;;;;31.48;19.48;;;0.90;99.90;;;;;;6235904;22;20091;-79
2024/03/08 01:09:00;;;;;;;32.30;19.38;;;1.00;99.90;;;;;;6211076;22;20003;-78
2024/03/08 01:11:27;;;;;;;31.58;19.42;;;1.10;99.90;;;;;;6210809;22;20019;-79
2024/03/08 01:13:53;;;;;;;34.75;20.10;;;1.10;99.90;;;;;;6211801;22;20030;-78
2024/03/08 01:16:20;;;;;;;32.85;20.23;;;1.10;99.90;;;;;;6237599;22;20075;-79
2024/03/08 01:18:46;;;;;;;31.15;19.00;;;1.10;99.90;;;;;;6236298;22;20464;-78
2024/03/08 01:21:12;;;;;;;35.70;20.80;;;1.00;99.90;;;;;;6211474;22;20008;-78
2024/03/08 01:23:39;;;;;;;34.95;19.83;;;0.90;99.90;;;;;;6186279;22;20043;-79
2024/03/08 01:26:05;;;;;;;36.70;21.13;;;0.90;99.90;;;;;;6186812;22;20011;-79
2024/03/08 01:28:30;;;;;;;34.15;22.02;;;0.90;99.90;;;;;;6186805;22;20058;-78
2024/03/08 01:30:56;;;;;;;39.50;21.13;;;1.00;99.90;;;;;;6211691;22;20008;-78
2024/03/08 01:33:23;;;;;;;31.52;20.33;;;1.00;99.90;;;;;;6213060;22;20078;-79
2024/03/08 01:35:49;;;;;;;34.58;20.30;;;0.90;99.90;;;;;;6211005;22;20008;-78
2024/03/08 01:38:15;;;;;;;34.92;20.17;;;0.70;99.90;;;;;;6212329;22;20069;-79
2024/03/08 01:40:41;;;;;;;36.65;21.77;;;0.70;99.90;;;;;;6213480;22;20008;-79
2024/03/08 01:43:20;;;;;;;33.92;20.73;;;0.60;99.90;;;;;;6212505;22;20012;-78
2024/03/08 01:45:46;;;;;;;34.17;21.50;;;0.70;99.90;;;;;;6189866;22;20333;-78
2024/03/08 01:48:12;;;;;;;37.40;20.58;;;0.70;99.90;;;;;;6213373;22;20008;-78
2024/03/08 01:50:39;;;;;;;34.60;21.48;;;0.70;99.90;;;;;;6213750;22;20023;-78
2024/03/08 01:53:04;;;;;;;35.67;20.83;;;0.60;99.90;;;;;;6239464;22;20004;-78
2024/03/08 01:55:30;;;;;;;37.58;20.90;;;0.70;99.90;;;;;;6238967;22;20053;-78
2024/03/08 01:57:55;;;;;;;36.10;21.00;;;0.60;99.90;;;;;;6212320;22;20020;-78
2024/03/08 02:00:21;;;;;;;32.45;21.33;;;0.60;99.90;;;;;;6188446;22;20010;-79
2024/03/08 02:02:47;;;;;;;36.15;20.55;;;0.50;99.90;;;;;;6188255;22;20033;-79
2024/03/08 02:05:13;;;;;;;37.53;21.92;;;0.40;99.90;;;;;;6210970;22;20008;-78
2024/03/08 02:07:43;;;;;;;38.08;22.65;;;0.50;99.90;;;;;;6186756;22;20072;-79
2024/03/08 02:10:09;;;;;;;38.63;21.88;;;0.50;99.90;;;;;;6238452;22;20008;-78
2024/03/08 02:12:35;;;;;;;39.42;22.23;;;0.50;99.90;;;;;;6187524;22;20118;-78
2024/03/08 02:15:00;;;;;;;37.28;21.90;;;0.40;99.90;;;;;;6186187;22;20012;-79
2024/03/08 02:17:26;;;;;;;34.45;21.42;;;0.40;99.90;;;;;;6211428;22;20008;-78
2024/03/08 02:19:51;;;;;;;45.42;22.50;;;0.30;99.90;;;;;;6213672;22;20425;-78
2024/03/08 02:22:17;;;;;;;39.22;21.73;;;0.40;99.90;;;;;;6213173;22;20061;-79
2024/03/08 02:24:43;;;;;;;35.75;21.33;;;0.30;99.90;;;;;;6236942;22;20400;-79
2024/03/08 02:27:11;;;;;;;43.30;23.48;;;0.30;99.90;;;;;;6211476;22;20031;-78
2024/03/08 02:29:37;;;;;;;36.58;22.02;;;0.20;99.90;;;;;;6212842;22;20021;-79
2024/03/08 02:32:03;;;;;;;40.28;22.50;;;0.20;99.90;;;;;;6212080;22;20809;-79
2024/03/08 02:34:31;;;;;;;38.72;22.73;;;0.10;99.90;;;;;;6213504;22;20008;-78
2024/03/08 02:36:56;;;;;;;37.72;22.58;;;0.20;99.90;;;;;;6213786;22;19999;-79
2024/03/08 02:39:22;;;;;;;36.95;21.92;;;0.20;99.90;;;;;;6213368;22;20011;-79
2024/03/08 02:41:47;;;;;;;36.08;21.48;;;0.20;99.90;;;;;;6264479;22;20022;-79
2024/03/08 02:44:14;;;;;;;37.80;21.33;;;0.20;99.90;;;;;;6212275;22;20329;-79
2024/03/08 02:46:40;;;;;;;34.78;21.13;;;0.10;99.90;;;;;;6212582;22;20016;-79
2024/03/08 02:49:07;;;;;;;40.17;22.33;;;0.10;99.90;;;;;;6211075;22;20334;-78
2024/03/08 02:51:35;;;;;;;42.03;22.60;;;0.30;99.90;;;;;;6236856;22;20066;-78
2024/03/08 02:54:00;;;;;;;42.85;23.75;;;0.20;99.90;;;;;;6211131;22;20012;-78
2024/03/08 02:56:26;;;;;;;41.42;22.08;;;0.20;99.90;;;;;;6238118;22;20012;-78
2024/03/08 02:58:52;;;;;;;38.10;22.33;;;0.20;99.90;;;;;;6215440;22;20406;-78
2024/03/08 03:01:20;;;;;;;44.47;23.70;;;0.10;99.90;;;;;;6212779;22;20095;-78
2024/03/08 03:03:47;;;;;;;41.55;22.80;;;0.00;99.90;;;;;;6187705;22;20020;-78
2024/03/08 03:06:12;;;;;;;42.15;24.35;;;0.00;99.90;;;;;;6212702;22;20015;-78
2024/03/08 03:08:38;;;;;;;42.35;23.58;;;-0.10;99.90;;;;;;6213010;22;20383;-78
2024/03/08 03:11:04;;;;;;;40.00;23.20;;;-0.10;99.90;;;;;;6237782;22;20015;-78
2024/03/08 03:13:31;;;;;;;37.95;21.38;;;-0.20;99.90;;;;;;6212987;22;20642;-78
2024/03/08 03:15:57;;;;;;;39.45;21.92;;;-0.20;99.90;;;;;;6212174;22;20034;-78
2024/03/08 03:18:23;;;;;;;39.17;23.05;;;-0.30;99.90;;;;;;6214928;22;20036;-78
2024/03/08 03:20:49;;;;;;;36.95;23.02;;;-0.30;99.90;;;;;;6214623;22;20103;-78
2024/03/08 03:23:20;;;;;;;42.30;22.95;;;-0.30;99.90;;;;;;6213169;22;20091;-78
2024/03/08 03:25:46;;;;;;;38.85;22.85;;;-0.30;99.90;;;;;;6240429;22;20480;-78
2024/03/08 03:28:14;;;;;;;44.08;24.67;;;-0.30;99.90;;;;;;6214440;22;20004;-78
2024/03/08 03:30:39;;;;;;;39.95;23.40;;;-0.20;99.90;;;;;;6239671;22;20098;-78
2024/03/08 03:33:08;;;;;;;42.28;23.30;;;-0.30;99.90;;;;;;6214163;22;20032;-78
2024/03/08 03:35:34;;;;;;;40.90;24.30;;;-0.30;99.90;;;;;;6213491;22;20033;-78
2024/03/08 03:38:06;;;;;;;43.53;24.58;;;-0.30;99.90;;;;;;6213507;22;20043;-78
2024/03/08 03:40:36;;;;;;;38.97;23.75;;;-0.40;99.90;;;;;;6240466;22;20475;-78
2024/03/08 03:43:02;;;;;;;40.60;24.63;;;-0.40;99.90;;;;;;6237978;22;20091;-78
2024/03/08 03:45:28;;;;;;;49.15;24.33;;;-0.50;99.90;;;;;;6214312;22;20007;-78
2024/03/08 03:47:53;;;;;;;38.72;23.05;;;-0.50;99.90;;;;;;6239610;22;20038;-78
2024/03/08 03:50:20;;;;;;;44.00;24.05;;;-0.60;99.90;;;;;;6188068;22;20461;-78
2024/03/08 03:52:46;;;;;;;47.58;26.42;;;-0.60;99.90;;;;;;6214119;22;20015;-78
2024/03/08 03:55:13;;;;;;;39.92;24.17;;;-0.50;99.90;;;;;;6238557;22;20441;-77
2024/03/08 03:57:38;;;;;;;42.15;24.13;;;-0.60;99.90;;;;;;6188977;22;20015;-78
2024/03/08 04:00:06;;;;;;;43.13;24.20;;;-0.70;99.90;;;;;;6214195;22;20345;-78
2024/03/08 04:02:31;;;;;;;41.05;24.25;;;-0.70;99.90;;;;;;6214268;22;20015;-78
2024/03/08 04:04:57;;;;;;;47.88;25.42;;;-0.80;99.90;;;;;;6214691;22;20007;-78
2024/03/08 04:07:22;;;;;;;39.90;24.60;;;-0.80;99.90;;;;;;6264864;22;20003;-78
2024/03/08 04:09:48;;;;;;;44.95;24.52;;;-0.80;99.90;;;;;;6210906;22;20011;-78
2024/03/08 04:12:15;;;;;;;41.72;24.33;;;-0.70;99.90;;;;;;6236877;22;20008;-78
2024/03/08 04:14:41;;;;;;;44.50;26.10;;;-0.80;99.90;;;;;;6187884;22;20479;-78
2024/03/08 04:17:08;;;;;;;44.40;24.17;;;-0.80;99.90;;;;;;6212090;22;20620;-78
2024/03/08 04:19:34;;;;;;;47.30;25.27;;;-0.80;99.90;;;;;;6187882;22;20050;-78
2024/03/08 04:22:00;;;;;;;48.28;26.38;;;-0.70;99.90;;;;;;6237048;22;20018;-78
2024/03/08 04:24:26;;;;;;;43.30;23.50;;;-0.70;99.90;;;;;;6237580;22;20007;-78
2024/03/08 04:26:52;;;;;;;43.03;24.60;;;-0.80;99.90;;;;;;6185765;22;20015;-78
2024/03/08 04:29:18;;;;;;;43.33;25.02;;;-0.80;99.90;;;;;;6236629;22;21023;-78
2024/03/08 04:31:44;;;;;;;42.95;23.60;;;-0.90;99.90;;;;;;6212199;22;20027;-78
2024/03/08 04:34:10;;;;;;;40.63;23.88;;;-0.90;99.90;;;;;;6236657;22;20016;-77
2024/03/08 04:36:35;;;;;;;46.15;25.63;;;-0.90;99.90;;;;;;6263883;22;20019;-78
2024/03/08 04:39:01;;;;;;;47.50;26.90;;;-0.80;99.90;;;;;;6237432;22;20012;-77
2024/03/08 04:41:26;;;;;;;46.00;25.00;;;-0.80;99.90;;;;;;6238293;22;20023;-78
2024/03/08 04:43:52;;;;;;;44.80;25.08;;;-0.80;99.90;;;;;;6186407;22;20085;-78
2024/03/08 04:46:18;;;;;;;46.75;25.42;;;-0.90;99.90;;;;;;6211779;22;20349;-78
2024/03/08 04:48:43;;;;;;;43.33;24.92;;;-1.00;99.90;;;;;;6210478;22;20019;-78
2024/03/08 04:51:09;;;;;;;42.55;23.60;;;-1.00;99.90;;;;;;6186487;22;20386;-79
2024/03/08 04:53:35;;;;;;;43.28;23.92;;;-1.00;99.90;;;;;;6213136;22;20008;-78
2024/03/08 04:56:05;;;;;;;39.15;23.70;;;-1.00;99.90;;;;;;6237342;22;20035;-78
2024/03/08 04:58:32;;;;;;;45.85;24.05;;;-1.00;99.90;;;;;;6238152;22;20027;-78
2024/03/08 05:00:57;;;;;;;45.53;24.60;;;-1.00;99.90;;;;;;6265478;22;20380;-78
2024/03/08 05:03:26;;;;;;;49.08;25.48;;;-1.00;99.90;;;;;;6184929;22;20015;-78
2024/03/08 05:05:52;;;;;;;43.15;25.27;;;-1.00;99.90;;;;;;6210376;22;20015;-78
2024/03/08 05:08:18;;;;;;;44.90;24.88;;;-1.00;99.90;;;;;;6186318;22;20030;-78
2024/03/08 05:10:44;;;;;;;45.05;24.67;;;-1.00;99.90;;;;;;6211926;22;20015;-78
2024/03/08 05:13:09;;;;;;;49.55;23.42;;;-1.10;99.90;;;;;;6211433;22;20100;-78
2024/03/08 05:15:36;;;;;;;45.40;24.23;;;-1.10;99.90;;;;;;6185059;22;20007;-78
2024/03/08 05:18:02;;;;;;;43.63;25.30;;;-1.10;99.90;;;;;;6210865;22;20019;-78
2024/03/08 05:20:27;;;;;;;45.78;21.85;;;-1.10;99.90;;;;;;6237837;22;20026;-78
2024/03/08 05:22:53;;;;;;;47.30;24.90;;;-1.00;99.90;;;;;;6237692;22;19999;-79
2024/03/08 05:25:18;;;;;;;43.78;25.25;;;-1.00;99.90;;;;;;6263917;22;20016;-78
2024/03/08 05:27:44;;;;;;;43.80;23.65;;;-0.90;99.90;;;;;;6209950;22;20012;-78
2024/03/08 05:30:14;;;;;;;48.83;25.65;;;-1.00;99.90;;;;;;6261365;22;20031;-78
2024/03/08 05:32:44;;;;;;;41.78;23.33;;;-1.00;99.90;;;;;;6237583;22;20023;-78
2024/03/08 05:35:12;;;;;;;52.92;26.40;;;-1.10;99.90;;;;;;6263145;22;20007;-78
2024/03/08 05:37:42;;;;;;;49.90;26.35;;;-1.10;99.90;;;;;;6237702;22;20345;-78
2024/03/08 05:40:09;;;;;;;45.88;25.63;;;-1.20;99.90;;;;;;6236732;22;20322;-79
2024/03/08 05:42:38;;;;;;;47.40;24.42;;;-1.10;99.90;;;;;;6237053;22;20016;-78
2024/03/08 05:45:06;;;;;;;44.25;25.52;;;-1.20;99.90;;;;;;6210459;22;20029;-78
2024/03/08 05:47:35;;;;;;;47.85;25.20;;;-1.30;99.90;;;;;;6213239;22;20387;-79
2024/03/08 05:50:00;;;;;;;45.38;25.30;;;-1.30;99.90;;;;;;6212283;22;20065;-78
2024/03/08 05:52:26;;;;;;;47.83;27.25;;;-1.20;99.90;;;;;;6264144;22;20009;-78
2024/03/08 05:54:52;;;;;;;45.17;26.88;;;-1.30;99.90;;;;;;6186590;22;20058;-79
2024/03/08 05:57:17;;;;;;;51.80;27.00;;;-1.30;99.90;;;;;;6210775;22;20051;-78
2024/03/08 05:59:43;;;;;;;47.53;27.10;;;-1.30;99.90;;;;;;6210407;22;20575;-79
2024/03/08 06:02:08;;;;;;;47.17;25.27;;;-1.30;99.90;;;;;;6233982;22;20083;-78
2024/03/08 06:04:34;;;;;;;49.25;25.50;;;-1.30;99.90;;;;;;6237605;22;20016;-78
2024/03/08 06:07:00;;;;;;;45.80;24.95;;;-1.30;99.90;;;;;;6236427;22;20311;-78
2024/03/08 06:09:25;;;;;;;52.92;25.55;;;-1.30;99.90;;;;;;6237348;22;20045;-78
2024/03/08 06:11:54;;;;;;;50.60;26.17;;;-1.30;99.90;;;;;;6213368;22;20011;-78
2024/03/08 06:14:19;;;;;;;49.50;25.33;;;-1.40;99.90;;;;;;6237650;22;20008;-78
2024/03/08 06:16:46;;;;;;;49.05;26.10;;;-1.30;99.90;;;;;;6210139;22;20074;-78
2024/03/08 06:19:12;;;;;;;50.40;26.73;;;-1.30;99.90;;;;;;6211092;22;20386;-78
2024/03/08 06:21:37;;;;;;;53.85;26.52;;;-1.30;99.90;;;;;;6210607;22;20059;-78
2024/03/08 06:24:03;;;;;;;55.80;27.88;;;-1.30;99.90;;;;;;6186308;22;20012;-78
2024/03/08 06:26:29;;;;;;;55.75;27.42;;;-1.30;99.90;;;;;;6213405;22;20004;-78
2024/03/08 06:28:54;;;;;;;56.38;27.92;;;-1.20;99.90;;;;;;6188540;22;20102;-78
2024/03/08 06:31:20;;;;;;;57.40;28.88;;;-1.30;99.90;;;;;;6189846;22;20007;-78
2024/03/08 06:33:46;;;;;;;51.13;26.08;;;-1.30;99.90;;;;;;6214165;22;20012;-78
2024/03/08 06:36:12;;;;;;;49.30;26.42;;;-1.30;99.90;;;;;;6214432;22;20015;-78
2024/03/08 06:38:42;;;;;;;52.63;27.80;;;-1.20;99.90;;;;;;6189830;22;20020;-78
2024/03/08 06:41:09;;;;;;;54.67;26.73;;;-1.10;99.90;;;;;;6238756;22;20015;-78
2024/03/08 06:43:34;;;;;;;57.17;28.55;;;-1.10;99.90;;;;;;6239935;22;20093;-78
2024/03/08 06:46:00;;;;;;;53.25;26.98;;;-1.00;99.90;;;;;;6215675;22;20012;-78
2024/03/08 06:48:26;;;;;;;51.85;27.05;;;-1.00;99.90;;;;;;6214358;22;20015;-78
2024/03/08 06:50:51;;;;;;;53.58;27.50;;;-1.00;99.90;;;;;;6214587;22;20015;-79
2024/03/08 06:53:18;;;;;;;52.08;27.77;;;-1.00;99.90;;;;;;6188442;22;20349;-79
2024/03/08 06:55:44;;;;;;;51.03;26.33;;;-1.00;99.90;;;;;;6189752;22;20050;-78
2024/03/08 06:58:10;;;;;;;57.35;28.67;;;-0.90;99.90;;;;;;6238381;22;20461;-79
2024/03/08 07:00:36;;;;;;;66.30;29.70;;;-0.90;99.90;;;;;;6214049;22;20034;-79
2024/03/08 07:03:02;;;;;;;51.92;26.52;;;-0.80;99.90;;;;;;6239153;22;20012;-79
2024/03/08 07:05:32;;;;;;;57.45;27.70;;;-0.90;99.90;;;;;;6238552;22;20000;-78
2024/03/08 07:07:58;;;;;;;60.55;29.08;;;-0.90;99.90;;;;;;6238317;22;20361;-79
2024/03/08 07:10:24;;;;;;;54.85;27.13;;;-0.80;99.90;;;;;;6211860;22;20015;-79
2024/03/08 07:12:50;;;;;;;58.03;29.23;;;-0.70;99.90;;;;;;6191751;22;20453;-79
2024/03/08 07:15:19;;;;;;;59.28;29.23;;;-0.60;99.90;;;;;;6239548;22;20016;-78
2024/03/08 07:17:45;;;;;;;53.75;26.77;;;-0.60;99.90;;;;;;6216837;22;20027;-79
2024/03/08 07:20:12;;;;;;;55.25;26.75;;;-0.40;99.90;;;;;;6241973;22;20008;-79
2024/03/08 07:22:38;;;;;;;60.97;29.35;;;-0.50;99.90;;;;;;6241911;22;20069;-79
2024/03/08 07:27:36;;;;;;;53.45;29.70;;;-0.40;99.90;;;;;;6216698;22;20114;-79
2024/03/08 07:30:02;;;;;;;53.75;28.27;;;-0.30;99.90;;;;;;6215687;22;20015;-79
2024/03/08 07:32:29;;;;;;;55.78;28.30;;;-0.30;99.90;;;;;;6239686;22;20000;-77
2024/03/08 07:34:56;;;;;;;52.58;27.02;;;-0.10;99.90;;;;;;6267465;22;20839;-78
2024/03/08 07:37:21;;;;;;;53.58;28.65;;;0.20;99.90;;;;;;6189450;22;20078;-79
2024/03/08 07:39:47;;;;;;;54.47;28.48;;;0.30;99.90;;;;;;6189138;22;20050;-79
2024/03/08 07:42:12;;;;;;;50.88;26.58;;;0.30;99.90;;;;;;6212143;22;20014;-80
2024/03/08 07:44:38;;;;;;;51.17;28.85;;;0.40;99.90;;;;;;6187792;22;20098;-79
2024/03/08 07:47:04;;;;;;;50.38;26.83;;;0.50;99.90;;;;;;6188768;22;20087;-79
2024/03/08 07:49:30;;;;;;;54.67;27.40;;;0.60;99.90;;;;;;6187562;22;20026;-79
2024/03/08 07:51:56;;;;;;;53.28;25.48;;;0.80;99.90;;;;;;6189201;22;20016;-79
2024/03/08 07:54:21;;;;;;;46.20;27.38;;;0.70;99.90;;;;;;6213693;22;20420;-80
2024/03/08 07:56:47;;;;;;;47.22;25.42;;;0.90;99.90;;;;;;6213978;22;20016;-80
2024/03/08 07:59:13;;;;;;;48.08;26.02;;;1.10;99.90;;;;;;6211821;22;20015;-78
2024/03/08 08:01:38;;;;;;;49.90;25.67;;;1.10;99.90;;;;;;6210543;22;20016;-80
2024/03/08 08:04:04;;;;;;;49.17;26.88;;;1.30;99.90;;;;;;6214328;22;20065;-80
2024/03/08 08:06:33;;;;;;;49.30;24.92;;;1.40;99.90;;;;;;6237617;22;20004;-80
2024/03/08 08:08:59;;;;;;;51.25;26.92;;;1.60;99.90;;;;;;6214739;22;20004;-80
2024/03/08 08:11:27;;;;;;;44.65;25.45;;;1.60;99.90;;;;;;6187404;22;20192;-80
2024/03/08 08:13:54;;;;;;;49.92;26.75;;;1.70;99.90;;;;;;6188661;22;20412;-80
2024/03/08 08:16:20;;;;;;;46.03;24.40;;;1.80;99.90;;;;;;6213322;22;20690;-80
2024/03/08 08:18:46;;;;;;;49.65;27.17;;;1.70;99.90;;;;;;6237933;22;20094;-80
2024/03/08 08:21:11;;;;;;;49.65;25.52;;;2.20;99.90;;;;;;6189007;22;20007;-80
2024/03/08 08:23:37;;;;;;;47.13;26.08;;;2.30;99.90;;;;;;6238866;22;20424;-80
2024/03/08 08:26:03;;;;;;;44.05;24.85;;;2.30;99.90;;;;;;6214575;22;20227;-79
2024/03/08 08:28:31;;;;;;;43.85;23.23;;;2.50;99.90;;;;;;6187545;22;20012;-81
2024/03/08 08:30:59;;;;;;;45.72;24.90;;;2.80;99.90;;;;;;6237306;22;20023;-80
2024/03/08 08:33:25;;;;;;;40.55;23.77;;;2.90;99.90;;;;;;6235967;22;20422;-80
2024/03/08 08:35:53;;;;;;;43.78;24.10;;;2.90;99.90;;;;;;6212780;22;20023;-80
2024/03/08 08:38:20;;;;;;;44.08;23.05;;;2.40;99.90;;;;;;6214723;22;20018;-81
2024/03/08 08:40:47;;;;;;;41.40;23.05;;;3.00;99.90;;;;;;6212887;22;20433;-80
2024/03/08 08:43:13;;;;;;;41.28;25.20;;;3.40;99.90;;;;;;6213838;22;20430;-81
2024/03/08 08:45:38;;;;;;;39.67;22.35;;;3.60;99.90;;;;;;6187494;22;20010;-79
2024/03/08 08:48:05;;;;;;;39.60;24.45;;;3.60;99.90;;;;;;6213924;22;20065;-79
2024/03/08 08:50:30;;;;;;;37.75;22.38;;;3.00;99.90;;;;;;6213755;22;20086;-78
2024/03/08 08:52:56;;;;;;;40.05;23.45;;;3.30;99.90;;;;;;6212272;22;20429;-79
2024/03/08 08:55:25;;;;;;;38.30;20.98;;;3.90;99.90;;;;;;6188162;22;20074;-81
2024/03/08 08:57:51;;;;;;;34.47;17.73;;;4.20;99.90;;;;;;6238660;22;20015;-81
2024/03/08 09:00:19;;;;;;;33.33;18.45;;;4.50;99.90;;;;;;6265399;22;20012;-80
2024/03/08 09:02:45;;;;;;;37.95;23.25;;;4.40;99.90;;;;;;6215260;22;20007;-81
2024/03/08 09:05:11;;;;;;;35.95;20.10;;;4.10;99.90;;;;;;6185812;22;20008;-81
2024/03/08 09:07:38;;;;;;;40.67;23.83;;;4.60;99.90;;;;;;6186694;22;20014;-80
2024/03/08 09:10:04;;;;;;;30.15;18.13;;;4.50;99.90;;;;;;6238048;22;20008;-81
2024/03/08 09:12:32;;;;;;;34.33;21.15;;;4.80;99.90;;;;;;6186634;22;20000;-79
2024/03/08 09:14:58;;;;;;;37.40;20.10;;;4.90;99.90;;;;;;6188852;22;20077;-81
2024/03/08 09:17:23;;;;;;;34.72;20.52;;;4.60;99.90;;;;;;6187286;22;20015;-81
2024/03/08 09:19:49;;;;;;;30.92;18.73;;;5.20;99.90;;;;;;6237302;22;20047;-81
2024/03/08 09:22:15;;;;;;;33.50;20.60;;;5.20;99.90;;;;;;6187291;22;20019;-81
2024/03/08 09:24:41;;;;;;;31.92;18.90;;;5.50;99.90;;;;;;6211938;22;20500;-80
2024/03/08 09:27:09;;;;;;;32.30;19.17;;;5.60;99.90;;;;;;6213473;22;20008;-81
2024/03/08 09:29:35;;;;;;;32.83;18.08;;;5.40;99.90;;;;;;6189183;23;20020;-81
2024/03/08 09:32:00;;;;;;;36.38;22.33;;;5.20;99.90;;;;;;6177272;23;20122;-80
2024/03/08 09:34:26;;;;;;;33.08;20.52;;;5.50;99.90;;;;;;6206534;23;20058;-81
2024/03/08 09:36:52;;;;;;;34.15;18.70;;;5.50;99.90;;;;;;6184044;23;20323;-81
2024/03/08 09:39:20;;;;;;;31.08;20.20;;;6.00;99.90;;;;;;6207650;23;20100;-81
2024/03/08 09:41:49;;;;;;;34.40;21.15;;;6.20;99.90;;;;;;6204517;23;20012;-81
2024/03/08 09:44:17;;;;;;;30.77;20.05;;;5.70;99.90;;;;;;6211864;23;20008;-81
2024/03/08 09:46:43;;;;;;;31.88;17.60;;;5.50;99.90;;;;;;6235336;22;20488;-82
2024/03/08 09:49:10;;;;;;;34.97;21.63;;;6.00;99.90;;;;;;6214176;22;20035;-81
2024/03/08 09:51:36;;;;;;;29.33;17.80;;;6.60;99.90;;;;;;6217028;22;20012;-81
2024/03/08 09:54:04;;;;;;;29.40;18.70;;;6.30;99.90;;;;;;6214678;22;20676;-82
2024/03/08 09:56:32;;;;;;;26.13;17.17;;;6.60;99.90;;;;;;6240930;22;20036;-81
2024/03/08 10:01:42;;;;;;;26.98;17.27;;;7.00;99.90;;;;;;6216244;23;20349;-81
2024/03/08 10:04:10;;;;;;;25.27;15.32;;;7.50;99.90;;;;;;6206940;23;20016;-80
2024/03/08 10:06:36;;;;;;;30.85;19.00;;;7.70;99.90;;;;;;6191349;23;20016;-82
2024/03/08 10:09:02;;;;;;;30.33;15.60;;;7.50;99.90;;;;;;6187354;23;20016;-81
2024/03/08 10:11:28;;;;;;;28.67;18.23;;;7.80;99.90;;;;;;6203924;23;20083;-80
2024/03/08 10:13:54;;;;;;;27.23;17.52;;;8.00;99.90;;;;;;6210800;23;20012;-81
2024/03/08 10:16:21;;;;;;;24.80;17.20;;;7.90;99.90;;;;;;6209520;23;20015;-81
2024/03/08 10:18:47;;;;;;;30.80;18.80;;;7.60;99.90;;;;;;6209220;23;20466;-82
2024/03/08 10:21:15;;;;;;;27.42;17.67;;;8.30;99.90;;;;;;6180931;23;20039;-81
2024/03/08 10:23:43;;;;;;;29.25;17.85;;;7.80;99.90;;;;;;6207130;23;20020;-82
2024/03/08 10:26:15;;;;;;;29.35;17.58;;;8.30;99.90;;;;;;6212400;23;20012;-82
2024/03/08 10:28:44;;;;;;;28.08;15.15;;;8.10;99.90;;;;;;6209911;23;20016;-78
2024/03/08 10:31:10;;;;;;;28.25;18.17;;;8.60;99.90;;;;;;6205177;23;20016;-79
2024/03/08 10:33:37;;;;;;;20.23;12.75;;;8.30;99.90;;;;;;6184883;23;20038;-75
2024/03/08 10:36:03;;;;;;;29.15;18.15;;;8.30;99.90;;;;;;6236141;23;20019;-79
2024/03/08 10:38:32;;;;;;;30.33;18.00;;;8.40;99.90;;;;;;6184176;23;20016;-79
2024/03/08 10:40:58;;;;;;;25.08;17.95;;;8.40;99.90;;;;;;6189024;23;20038;-79
2024/03/08 10:43:25;;;;;;;25.30;16.67;;;8.60;99.90;;;;;;6211129;23;20012;-79
2024/03/08 10:45:53;;;;;;;28.13;16.98;;;9.00;99.90;;;;;;6207614;23;20058;-79
2024/03/08 10:48:33;;;;;;;33.20;20.27;;;8.90;99.90;;;;;;6185661;23;20012;-79
2024/03/08 10:51:08;;;;;;;27.98;17.90;;;8.60;99.90;;;;;;6207408;23;20047;-79
2024/03/08 10:53:33;;;;;;;27.57;17.93;;;8.70;99.90;;;;;;6183780;23;20087;-79
2024/03/08 10:55:59;;;;;;;29.50;19.45;;;9.20;99.90;;;;;;6183543;23;20613;-78
2024/03/08 10:58:28;;;;;;;29.15;19.45;;;9.10;99.90;;;;;;6178653;23;20016;-79
2024/03/08 11:00:56;;;;;;;30.30;18.48;;;8.90;99.90;;;;;;6207734;23;20012;-79
2024/03/08 11:03:40;;;;;;;25.88;18.05;;;8.80;99.90;;;;;;6179442;23;20041;-79
2024/03/08 11:06:07;;;;;;;30.58;19.40;;;10.00;99.90;;;;;;6235104;22;20011;-82
2024/03/08 11:08:33;;;;;;;29.80;18.85;;;10.10;99.90;;;;;;6185513;22;20689;-82
2024/03/08 11:10:59;;;;;;;33.95;20.50;;;10.00;99.90;;;;;;6184376;22;20035;-82
2024/03/08 11:13:36;;;;;;;28.25;19.02;;;9.50;99.90;;;;;;6235774;22;20008;-83
2024/03/08 11:16:07;;;;;;;31.55;18.80;;;9.80;99.90;;;;;;6259349;22;20015;-82
2024/03/08 11:18:34;;;;;;;31.85;20.95;;;10.00;99.90;;;;;;6210917;22;20470;-83
2024/03/08 11:21:05;;;;;;;33.50;22.52;;;8.90;99.90;;;;;;6211668;22;20504;-83
2024/03/08 11:23:31;;;;;;;30.75;20.02;;;8.60;99.90;;;;;;6211684;22;20091;-80
2024/03/08 11:26:01;;;;;;;33.80;21.08;;;9.00;99.90;;;;;;6186699;22;20497;-83
2024/03/08 11:28:26;;;;;;;32.58;22.25;;;8.70;99.90;;;;;;6212679;22;20014;-83
2024/03/08 11:31:00;;;;;;;35.40;22.40;;;8.70;99.90;;;;;;6213160;22;20008;-82
2024/03/08 11:33:33;;;;;;;30.02;22.27;;;9.20;99.90;;;;;;6238955;22;20022;-82
2024/03/08 11:36:16;;;;;;;33.53;21.70;;;8.50;99.90;;;;;;6214376;22;20007;-84
2024/03/08 11:38:43;;;;;;;31.88;19.77;;;8.90;99.90;;;;;;6212281;22;20024;-81
2024/03/08 11:41:13;;;;;;;29.55;19.90;;;8.80;99.90;;;;;;6213706;22;20011;-84
2024/03/08 11:43:42;;;;;;;30.10;18.90;;;9.70;99.90;;;;;;6202230;23;20044;-83
2024/03/08 11:46:12;;;;;;;26.13;18.90;;;10.30;99.90;;;;;;6212335;22;20035;-84
2024/03/08 11:48:44;;;;;;;31.40;21.90;;;9.90;99.90;;;;;;6213019;22;20484;-84
2024/03/08 11:51:13;;;;;;;29.85;19.83;;;9.70;99.90;;;;;;6240001;22;20058;-84
2024/03/08 11:53:39;;;;;;;28.20;20.05;;;9.40;99.90;;;;;;6238100;22;20345;-85
2024/03/08 11:56:08;;;;;;;27.67;18.88;;;9.20;99.90;;;;;;6198127;22;20050;-83
2024/03/08 11:58:36;;;;;;;30.08;19.70;;;9.10;99.90;;;;;;6212178;22;20011;-83
2024/03/08 12:01:06;;;;;;;28.92;19.63;;;9.20;99.90;;;;;;6212491;22;20022;-83
2024/03/08 12:03:35;;;;;;;29.88;19.35;;;9.30;99.90;;;;;;6196675;22;20527;-82
2024/03/08 12:06:01;;;;;;;30.27;20.02;;;9.20;99.90;;;;;;6251879;22;20071;-83
2024/03/08 12:08:28;;;;;;;32.35;20.10;;;9.80;99.90;;;;;;6207805;22;20016;-83
2024/03/08 12:10:59;;;;;;;32.47;21.98;;;9.70;99.90;;;;;;6186294;22;20345;-84
2024/03/08 12:13:29;;;;;;;27.60;20.27;;;9.10;99.90;;;;;;6213140;22;20449;-84
2024/03/08 12:15:58;;;;;;;25.98;15.70;;;9.60;99.90;;;;;;6214244;22;20008;-83
2024/03/08 12:18:26;;;;;;;26.60;17.48;;;10.10;99.90;;;;;;6188899;22;20019;-84
2024/03/08 12:20:51;;;;;;;29.30;16.17;;;9.90;99.90;;;;;;6184434;22;20018;-86
2024/03/08 12:23:17;;;;;;;25.90;16.15;;;11.20;99.90;;;;;;6210387;22;20039;-86
2024/03/08 12:25:42;;;;;;;21.48;15.07;;;11.70;99.90;;;;;;6213342;22;20011;-84
2024/03/08 12:28:15;;;;;;;23.60;15.23;;;12.10;99.90;;;;;;6237206;22;20555;-85
2024/03/08 12:30:52;;;;;;;19.02;12.98;;;11.90;99.90;;;;;;6213918;22;20011;-86
2024/03/08 12:33:18;;;;;;;23.52;15.98;;;12.00;99.90;;;;;;6237039;22;20007;-86
2024/03/08 12:35:53;;;;;;;23.30;16.75;;;11.60;99.90;;;;;;6212126;22;20008;-84